sensor_id;sensor_type;location;lat;lon;timestamp;P1;durP1;ratioP1;P2;durP2;ratioP2
80868;SDS011;70295;40.182;44.498;2023-11-21T00:01:17;5.3;;;2.8;;
80868;SDS011;70295;40.182;44.498;2023-11-21T00:03:17;5;;;3.2;;
80868;SDS011;70295;40.182;44.498;2023-11-21T00:05:17;5.3;;;3.2;;
80868;SDS011;70295;40.182;44.498;2023-11-21T00:07:17;4.6;;;3.1;;
80868;SDS011;70295;40.182;44.498;2023-11-21T00:09:17;5.7;;;3.3;;
80868;SDS011;70295;40.182;44.498;2023-11-21T00:11:17;5.9;;;3.1;;
80868;SDS011;70295;40.182;44.498;2023-11-21T00:13:17;5.4;;;3.1;;
80868;SDS011;70295;40.182;44.498;2023-11-21T00:15:17;6;;;3.4;;
80868;SDS011;70295;40.182;44.498;2023-11-21T00:17:17;6;;;3.5;;
80868;SDS011;70295;40.182;44.498;2023-11-21T00:19:17;6;;;3.8;;
80868;SDS011;70295;40.182;44.498;2023-11-21T00:21:17;6.1;;;3.4;;
80868;SDS011;70295;40.182;44.498;2023-11-21T00:23:17;6.3;;;3.4;;
80868;SDS011;70295;40.182;44.498;2023-11-21T00:25:17;5.7;;;3.5;;
80868;SDS011;70295;40.182;44.498;2023-11-21T00:27:17;6.3;;;3.7;;
80868;SDS011;70295;40.182;44.498;2023-11-21T00:29:17;8.1;;;4.1;;
80868;SDS011;70295;40.182;44.498;2023-11-21T00:31:17;7.7;;;4.6;;
80868;SDS011;70295;40.182;44.498;2023-11-21T00:33:17;7.1;;;4.6;;
80868;SDS011;70295;40.182;44.498;2023-11-21T00:35:17;7.1;;;4.4;;
80868;SDS011;70295;40.182;44.498;2023-11-21T00:37:17;6.7;;;4.1;;
80868;SDS011;70295;40.182;44.498;2023-11-21T00:39:17;10.2;;;5.4;;
80868;SDS011;70295;40.182;44.498;2023-11-21T00:41:17;11.8;;;5.4;;
80868;SDS011;70295;40.182;44.498;2023-11-21T00:43:17;9.5;;;5.4;;
80868;SDS011;70295;40.182;44.498;2023-11-21T00:45:17;8.9;;;5.2;;
80868;SDS011;70295;40.182;44.498;2023-11-21T00:47:17;9.2;;;5.6;;
80868;SDS011;70295;40.182;44.498;2023-11-21T00:49:17;9.7;;;5.7;;
80868;SDS011;70295;40.182;44.498;2023-11-21T00:51:17;9.9;;;5.9;;
80868;SDS011;70295;40.182;44.498;2023-11-21T00:53:22;10.5;;;5.9;;
80868;SDS011;70295;40.182;44.498;2023-11-21T00:55:17;10.4;;;6.2;;
80868;SDS011;70295;40.182;44.498;2023-11-21T00:57:17;11;;;5.8;;
80868;SDS011;70295;40.182;44.498;2023-11-21T00:59:17;12.4;;;6.6;;
80868;SDS011;70295;40.182;44.498;2023-11-21T01:01:18;9.8;;;5.8;;
80868;SDS011;70295;40.182;44.498;2023-11-21T01:03:17;10.2;;;5.6;;
80868;SDS011;70295;40.182;44.498;2023-11-21T01:05:17;3.9;;;2.3;;
80868;SDS011;70295;40.182;44.498;2023-11-21T01:07:17;7.1;;;3.6;;
80868;SDS011;70295;40.182;44.498;2023-11-21T01:09:17;10;;;5.5;;
80868;SDS011;70295;40.182;44.498;2023-11-21T01:11:17;10.2;;;5.6;;
80868;SDS011;70295;40.182;44.498;2023-11-21T01:13:17;10.9;;;6;;
80868;SDS011;70295;40.182;44.498;2023-11-21T01:15:17;10.2;;;5;;
80868;SDS011;70295;40.182;44.498;2023-11-21T01:17:17;11.2;;;5.9;;
80868;SDS011;70295;40.182;44.498;2023-11-21T01:19:17;8.7;;;4.6;;
80868;SDS011;70295;40.182;44.498;2023-11-21T01:21:17;8.2;;;4.2;;
80868;SDS011;70295;40.182;44.498;2023-11-21T01:23:17;7.9;;;3.7;;
80868;SDS011;70295;40.182;44.498;2023-11-21T01:25:17;5.6;;;3.5;;
80868;SDS011;70295;40.182;44.498;2023-11-21T01:27:17;6.6;;;3.2;;
80868;SDS011;70295;40.182;44.498;2023-11-21T01:29:17;6.4;;;3.3;;
80868;SDS011;70295;40.182;44.498;2023-11-21T01:31:17;6.8;;;3.7;;
80868;SDS011;70295;40.182;44.498;2023-11-21T01:33:17;4.5;;;2.9;;
80868;SDS011;70295;40.182;44.498;2023-11-21T01:35:17;4.8;;;2.6;;
80868;SDS011;70295;40.182;44.498;2023-11-21T01:37:17;6.3;;;2.8;;
80868;SDS011;70295;40.182;44.498;2023-11-21T01:39:17;5.2;;;3.2;;
80868;SDS011;70295;40.182;44.498;2023-11-21T01:41:17;7.5;;;4.2;;
80868;SDS011;70295;40.182;44.498;2023-11-21T01:43:17;8.9;;;5;;
80868;SDS011;70295;40.182;44.498;2023-11-21T01:45:17;8.6;;;5;;
80868;SDS011;70295;40.182;44.498;2023-11-21T01:48:02;7.1;;;3.7;;
80868;SDS011;70295;40.182;44.498;2023-11-21T01:50:01;6.3;;;3.3;;
80868;SDS011;70295;40.182;44.498;2023-11-21T02:05:35;5.8;;;3.6;;
80868;SDS011;70295;40.182;44.498;2023-11-21T02:15:00;3.9;;;2.3;;
80868;SDS011;70295;40.182;44.498;2023-11-21T02:16:59;4.7;;;2.7;;
80868;SDS011;70295;40.182;44.498;2023-11-21T02:19:00;6.6;;;3;;
80868;SDS011;70295;40.182;44.498;2023-11-21T02:20:59;3.2;;;2;;
80868;SDS011;70295;40.182;44.498;2023-11-21T02:23:00;3.2;;;2;;
80868;SDS011;70295;40.182;44.498;2023-11-21T02:24:59;3.8;;;2.3;;
80868;SDS011;70295;40.182;44.498;2023-11-21T02:26:59;3.7;;;2.1;;
80868;SDS011;70295;40.182;44.498;2023-11-21T02:28:59;3.3;;;2;;
80868;SDS011;70295;40.182;44.498;2023-11-21T02:30:59;4.6;;;2.3;;
80868;SDS011;70295;40.182;44.498;2023-11-21T02:35:43;4;;;2.1;;
80868;SDS011;70295;40.182;44.498;2023-11-21T02:37:43;3.6;;;1.8;;
80868;SDS011;70295;40.182;44.498;2023-11-21T02:41:06;3.5;;;2.1;;
80868;SDS011;70295;40.182;44.498;2023-11-21T02:43:06;3.1;;;1.9;;
80868;SDS011;70295;40.182;44.498;2023-11-21T02:46:24;3.3;;;1.8;;
80868;SDS011;70295;40.182;44.498;2023-11-21T02:48:24;3.7;;;2.2;;
80868;SDS011;70295;40.182;44.498;2023-11-21T02:50:24;3.5;;;2.2;;
80868;SDS011;70295;40.182;44.498;2023-11-21T02:52:24;3.7;;;2.2;;
80868;SDS011;70295;40.182;44.498;2023-11-21T02:54:24;3.1;;;2.2;;
80868;SDS011;70295;40.182;44.498;2023-11-21T02:58:08;4.2;;;2.3;;
80868;SDS011;70295;40.182;44.498;2023-11-21T03:00:08;3.3;;;2;;
80868;SDS011;70295;40.182;44.498;2023-11-21T03:02:08;3.3;;;2.1;;
80868;SDS011;70295;40.182;44.498;2023-11-21T03:03:53;3.5;;;2.1;;
80868;SDS011;70295;40.182;44.498;2023-11-21T03:05:53;3.6;;;2;;
80868;SDS011;70295;40.182;44.498;2023-11-21T03:07:53;3;;;1.9;;
80868;SDS011;70295;40.182;44.498;2023-11-21T03:09:53;4.1;;;2.2;;
80868;SDS011;70295;40.182;44.498;2023-11-21T03:11:53;4.7;;;2.2;;
80868;SDS011;70295;40.182;44.498;2023-11-21T03:13:53;4.8;;;2.4;;
80868;SDS011;70295;40.182;44.498;2023-11-21T03:15:53;4.4;;;2.4;;
80868;SDS011;70295;40.182;44.498;2023-11-21T03:20:21;4.8;;;2.3;;
80868;SDS011;70295;40.182;44.498;2023-11-21T03:22:21;6.2;;;2.5;;
80868;SDS011;70295;40.182;44.498;2023-11-21T03:26:12;5.2;;;3;;
80868;SDS011;70295;40.182;44.498;2023-11-21T03:28:10;5.8;;;3.2;;
80868;SDS011;70295;40.182;44.498;2023-11-21T03:30:24;8;;;3.4;;
80868;SDS011;70295;40.182;44.498;2023-11-21T03:33:27;5.3;;;2.8;;
80868;SDS011;70295;40.182;44.498;2023-11-21T03:35:27;5.9;;;2.7;;
80868;SDS011;70295;40.182;44.498;2023-11-21T03:37:27;6.2;;;3.1;;
80868;SDS011;70295;40.182;44.498;2023-11-21T03:39:27;5.3;;;2.8;;
80868;SDS011;70295;40.182;44.498;2023-11-21T03:41:27;5.9;;;3;;
80868;SDS011;70295;40.182;44.498;2023-11-21T03:43:27;7.2;;;3.2;;
80868;SDS011;70295;40.182;44.498;2023-11-21T03:45:27;5.5;;;2.7;;
80868;SDS011;70295;40.182;44.498;2023-11-21T03:47:28;5.1;;;2.6;;
80868;SDS011;70295;40.182;44.498;2023-11-21T03:49:27;5.4;;;2.8;;
80868;SDS011;70295;40.182;44.498;2023-11-21T03:51:27;5;;;2.9;;
80868;SDS011;70295;40.182;44.498;2023-11-21T03:53:27;4.7;;;2.3;;
80868;SDS011;70295;40.182;44.498;2023-11-21T03:55:27;4.5;;;2.3;;
80868;SDS011;70295;40.182;44.498;2023-11-21T03:57:27;5.4;;;2.4;;
80868;SDS011;70295;40.182;44.498;2023-11-21T03:59:27;3.5;;;2.3;;
80868;SDS011;70295;40.182;44.498;2023-11-21T04:01:27;4.4;;;2.5;;
80868;SDS011;70295;40.182;44.498;2023-11-21T04:03:27;5.4;;;2.3;;
80868;SDS011;70295;40.182;44.498;2023-11-21T04:05:27;3;;;1.7;;
80868;SDS011;70295;40.182;44.498;2023-11-21T04:07:27;3.7;;;2.2;;
80868;SDS011;70295;40.182;44.498;2023-11-21T04:09:27;4.7;;;2.6;;
80868;SDS011;70295;40.182;44.498;2023-11-21T04:11:27;5.5;;;2.7;;
80868;SDS011;70295;40.182;44.498;2023-11-21T04:13:27;4.9;;;2.5;;
80868;SDS011;70295;40.182;44.498;2023-11-21T04:15:27;4.6;;;2.6;;
80868;SDS011;70295;40.182;44.498;2023-11-21T04:17:27;5.2;;;2.6;;
80868;SDS011;70295;40.182;44.498;2023-11-21T04:19:27;3.9;;;2.5;;
80868;SDS011;70295;40.182;44.498;2023-11-21T04:21:27;4.8;;;2.6;;
80868;SDS011;70295;40.182;44.498;2023-11-21T04:23:29;4.9;;;2.4;;
80868;SDS011;70295;40.182;44.498;2023-11-21T04:25:27;5.3;;;2.5;;
80868;SDS011;70295;40.182;44.498;2023-11-21T04:27:27;5.8;;;2.7;;
80868;SDS011;70295;40.182;44.498;2023-11-21T04:29:27;5.4;;;2.8;;
80868;SDS011;70295;40.182;44.498;2023-11-21T04:31:27;5.6;;;2.5;;
80868;SDS011;70295;40.182;44.498;2023-11-21T04:33:27;6.5;;;2.7;;
80868;SDS011;70295;40.182;44.498;2023-11-21T04:35:27;4.1;;;2.4;;
80868;SDS011;70295;40.182;44.498;2023-11-21T04:37:27;4.6;;;2.4;;
80868;SDS011;70295;40.182;44.498;2023-11-21T04:39:27;6.2;;;2.6;;
80868;SDS011;70295;40.182;44.498;2023-11-21T04:41:27;5.1;;;2.4;;
80868;SDS011;70295;40.182;44.498;2023-11-21T04:43:27;4.8;;;2.9;;
80868;SDS011;70295;40.182;44.498;2023-11-21T04:45:27;7.3;;;2.8;;
80868;SDS011;70295;40.182;44.498;2023-11-21T04:47:27;6.1;;;2.4;;
80868;SDS011;70295;40.182;44.498;2023-11-21T04:49:27;6.1;;;2.6;;
80868;SDS011;70295;40.182;44.498;2023-11-21T04:53:36;5.8;;;2.7;;
80868;SDS011;70295;40.182;44.498;2023-11-21T04:55:36;3.8;;;2.2;;
80868;SDS011;70295;40.182;44.498;2023-11-21T04:57:36;4.8;;;2.1;;
80868;SDS011;70295;40.182;44.498;2023-11-21T05:06:12;5.4;;;2.6;;
80868;SDS011;70295;40.182;44.498;2023-11-21T05:08:12;3.7;;;2.2;;
80868;SDS011;70295;40.182;44.498;2023-11-21T05:10:12;4.2;;;2.5;;
80868;SDS011;70295;40.182;44.498;2023-11-21T05:12:13;4;;;2.1;;
80868;SDS011;70295;40.182;44.498;2023-11-21T05:14:12;4.5;;;1.9;;
80868;SDS011;70295;40.182;44.498;2023-11-21T05:16:12;3.7;;;1.6;;
80868;SDS011;70295;40.182;44.498;2023-11-21T05:18:12;3.9;;;2;;
80868;SDS011;70295;40.182;44.498;2023-11-21T05:20:14;4.7;;;2.1;;
80868;SDS011;70295;40.182;44.498;2023-11-21T05:22:12;6.5;;;1.8;;
80868;SDS011;70295;40.182;44.498;2023-11-21T05:24:12;5.4;;;2.2;;
80868;SDS011;70295;40.182;44.498;2023-11-21T05:26:12;4.6;;;2.1;;
80868;SDS011;70295;40.182;44.498;2023-11-21T05:28:12;5.5;;;2.5;;
80868;SDS011;70295;40.182;44.498;2023-11-21T05:30:13;4.9;;;2;;
80868;SDS011;70295;40.182;44.498;2023-11-21T05:32:12;4.8;;;2;;
80868;SDS011;70295;40.182;44.498;2023-11-21T05:34:12;5.3;;;2.1;;
80868;SDS011;70295;40.182;44.498;2023-11-21T05:36:12;5.2;;;2.8;;
80868;SDS011;70295;40.182;44.498;2023-11-21T05:38:12;4.6;;;2.4;;
80868;SDS011;70295;40.182;44.498;2023-11-21T05:40:12;3.7;;;2.4;;
80868;SDS011;70295;40.182;44.498;2023-11-21T05:42:12;5.4;;;2.8;;
80868;SDS011;70295;40.182;44.498;2023-11-21T05:44:12;6.8;;;2.8;;
80868;SDS011;70295;40.182;44.498;2023-11-21T05:46:12;6.2;;;3.4;;
80868;SDS011;70295;40.182;44.498;2023-11-21T05:48:12;7.1;;;3;;
80868;SDS011;70295;40.182;44.498;2023-11-21T05:50:14;6.4;;;3.4;;
80868;SDS011;70295;40.182;44.498;2023-11-21T05:52:12;6.5;;;2.9;;
80868;SDS011;70295;40.182;44.498;2023-11-21T05:54:12;5;;;3.3;;
80868;SDS011;70295;40.182;44.498;2023-11-21T05:56:12;5.2;;;3;;
80868;SDS011;70295;40.182;44.498;2023-11-21T05:58:12;7.3;;;3.6;;
80868;SDS011;70295;40.182;44.498;2023-11-21T06:00:13;7.3;;;3.1;;
80868;SDS011;70295;40.182;44.498;2023-11-21T06:02:12;6.4;;;3.2;;
80868;SDS011;70295;40.182;44.498;2023-11-21T06:04:13;6.2;;;2.8;;
80868;SDS011;70295;40.182;44.498;2023-11-21T06:06:12;4.7;;;2.8;;
80868;SDS011;70295;40.182;44.498;2023-11-21T06:08:12;5.9;;;3.3;;
80868;SDS011;70295;40.182;44.498;2023-11-21T06:10:12;6.1;;;2.8;;
80868;SDS011;70295;40.182;44.498;2023-11-21T06:12:12;7.3;;;3.1;;
80868;SDS011;70295;40.182;44.498;2023-11-21T06:14:12;4.9;;;2.5;;
80868;SDS011;70295;40.182;44.498;2023-11-21T06:16:12;6.7;;;2.9;;
80868;SDS011;70295;40.182;44.498;2023-11-21T06:18:12;3.8;;;2.7;;
80868;SDS011;70295;40.182;44.498;2023-11-21T06:20:12;4.5;;;2.4;;
80868;SDS011;70295;40.182;44.498;2023-11-21T06:22:12;4.5;;;2;;
80868;SDS011;70295;40.182;44.498;2023-11-21T06:24:12;8.7;;;3.2;;
80868;SDS011;70295;40.182;44.498;2023-11-21T06:26:12;4.1;;;2.3;;
80868;SDS011;70295;40.182;44.498;2023-11-21T06:28:12;5.8;;;2.4;;
80868;SDS011;70295;40.182;44.498;2023-11-21T06:30:12;3.5;;;2.1;;
80868;SDS011;70295;40.182;44.498;2023-11-21T06:32:12;4.4;;;2.8;;
80868;SDS011;70295;40.182;44.498;2023-11-21T06:34:12;3.8;;;2.4;;
80868;SDS011;70295;40.182;44.498;2023-11-21T06:36:12;5.3;;;2.8;;
80868;SDS011;70295;40.182;44.498;2023-11-21T06:38:12;5.7;;;2.5;;
80868;SDS011;70295;40.182;44.498;2023-11-21T06:40:12;5.1;;;2.9;;
80868;SDS011;70295;40.182;44.498;2023-11-21T06:42:12;6.5;;;3;;
80868;SDS011;70295;40.182;44.498;2023-11-21T06:44:12;5.2;;;3.1;;
80868;SDS011;70295;40.182;44.498;2023-11-21T06:46:13;6.2;;;3;;
80868;SDS011;70295;40.182;44.498;2023-11-21T06:48:12;5.4;;;3.1;;
80868;SDS011;70295;40.182;44.498;2023-11-21T06:50:12;6.7;;;3.4;;
80868;SDS011;70295;40.182;44.498;2023-11-21T06:52:12;6.4;;;3.6;;
80868;SDS011;70295;40.182;44.498;2023-11-21T06:54:12;6.2;;;3.3;;
80868;SDS011;70295;40.182;44.498;2023-11-21T06:56:16;7.6;;;3.5;;
80868;SDS011;70295;40.182;44.498;2023-11-21T06:58:12;9.4;;;4;;
80868;SDS011;70295;40.182;44.498;2023-11-21T07:00:13;6.9;;;3.7;;
80868;SDS011;70295;40.182;44.498;2023-11-21T07:02:12;7.7;;;4;;
80868;SDS011;70295;40.182;44.498;2023-11-21T07:04:12;9.2;;;4.6;;
80868;SDS011;70295;40.182;44.498;2023-11-21T07:06:12;6.2;;;3.6;;
80868;SDS011;70295;40.182;44.498;2023-11-21T07:08:12;5.7;;;3.7;;
80868;SDS011;70295;40.182;44.498;2023-11-21T07:10:12;7.7;;;3.6;;
80868;SDS011;70295;40.182;44.498;2023-11-21T07:12:12;7.5;;;4;;
80868;SDS011;70295;40.182;44.498;2023-11-21T07:14:12;7.6;;;3.9;;
80868;SDS011;70295;40.182;44.498;2023-11-21T07:16:12;6.7;;;3.7;;
80868;SDS011;70295;40.182;44.498;2023-11-21T07:18:12;8.1;;;4.4;;
80868;SDS011;70295;40.182;44.498;2023-11-21T07:20:12;7.1;;;3.4;;
80868;SDS011;70295;40.182;44.498;2023-11-21T07:22:12;7.6;;;3.8;;
80868;SDS011;70295;40.182;44.498;2023-11-21T07:24:12;6.6;;;3.3;;
80868;SDS011;70295;40.182;44.498;2023-11-21T07:26:12;6.6;;;4;;
80868;SDS011;70295;40.182;44.498;2023-11-21T07:28:12;6.1;;;3.7;;
80868;SDS011;70295;40.182;44.498;2023-11-21T07:30:13;7.4;;;4.1;;
80868;SDS011;70295;40.182;44.498;2023-11-21T07:32:12;7.7;;;4.3;;
80868;SDS011;70295;40.182;44.498;2023-11-21T07:34:12;9.2;;;4.3;;
80868;SDS011;70295;40.182;44.498;2023-11-21T07:36:12;8.3;;;4.7;;
80868;SDS011;70295;40.182;44.498;2023-11-21T07:38:12;6.7;;;4;;
80868;SDS011;70295;40.182;44.498;2023-11-21T07:40:12;7.9;;;4.6;;
80868;SDS011;70295;40.182;44.498;2023-11-21T07:42:12;8.8;;;5;;
80868;SDS011;70295;40.182;44.498;2023-11-21T07:44:12;7.5;;;4.7;;
80868;SDS011;70295;40.182;44.498;2023-11-21T07:46:12;7.2;;;4.7;;
80868;SDS011;70295;40.182;44.498;2023-11-21T07:48:12;6;;;4;;
80868;SDS011;70295;40.182;44.498;2023-11-21T07:50:12;6.3;;;3.6;;
80868;SDS011;70295;40.182;44.498;2023-11-21T07:52:13;6.2;;;4;;
80868;SDS011;70295;40.182;44.498;2023-11-21T07:54:12;6.2;;;3.8;;
80868;SDS011;70295;40.182;44.498;2023-11-21T07:56:12;7.7;;;4.2;;
80868;SDS011;70295;40.182;44.498;2023-11-21T07:58:12;7.2;;;4.1;;
80868;SDS011;70295;40.182;44.498;2023-11-21T08:00:13;8.3;;;4.3;;
80868;SDS011;70295;40.182;44.498;2023-11-21T08:02:12;8.9;;;4.7;;
80868;SDS011;70295;40.182;44.498;2023-11-21T08:04:12;7;;;3.8;;
80868;SDS011;70295;40.182;44.498;2023-11-21T08:06:12;8.2;;;4.3;;
80868;SDS011;70295;40.182;44.498;2023-11-21T08:08:12;6.3;;;3.7;;
80868;SDS011;70295;40.182;44.498;2023-11-21T08:10:12;7.2;;;4.3;;
80868;SDS011;70295;40.182;44.498;2023-11-21T08:12:12;7.4;;;4.1;;
80868;SDS011;70295;40.182;44.498;2023-11-21T08:14:12;8.7;;;4.1;;
80868;SDS011;70295;40.182;44.498;2023-11-21T08:16:12;7;;;3.6;;
80868;SDS011;70295;40.182;44.498;2023-11-21T08:18:12;6;;;3.4;;
80868;SDS011;70295;40.182;44.498;2023-11-21T08:20:12;6.2;;;3.6;;
80868;SDS011;70295;40.182;44.498;2023-11-21T08:22:12;7.2;;;3.5;;
80868;SDS011;70295;40.182;44.498;2023-11-21T08:24:12;6.4;;;3.2;;
80868;SDS011;70295;40.182;44.498;2023-11-21T08:26:12;7.1;;;4.1;;
80868;SDS011;70295;40.182;44.498;2023-11-21T08:28:12;5.7;;;3.6;;
80868;SDS011;70295;40.182;44.498;2023-11-21T08:30:12;8.8;;;4.4;;
80868;SDS011;70295;40.182;44.498;2023-11-21T08:32:12;5.8;;;3.1;;
80868;SDS011;70295;40.182;44.498;2023-11-21T08:34:12;4.9;;;2.1;;
80868;SDS011;70295;40.182;44.498;2023-11-21T08:36:12;5.9;;;3.1;;
80868;SDS011;70295;40.182;44.498;2023-11-21T08:38:12;4.1;;;2.3;;
80868;SDS011;70295;40.182;44.498;2023-11-21T08:40:12;3.5;;;1.2;;
80868;SDS011;70295;40.182;44.498;2023-11-21T08:42:12;2.6;;;1.6;;
80868;SDS011;70295;40.182;44.498;2023-11-21T08:44:12;2.2;;;0.9;;
80868;SDS011;70295;40.182;44.498;2023-11-21T08:46:12;2.8;;;1.2;;
80868;SDS011;70295;40.182;44.498;2023-11-21T08:48:12;3.3;;;1.4;;
80868;SDS011;70295;40.182;44.498;2023-11-21T08:50:12;2.1;;;0.6;;
80868;SDS011;70295;40.182;44.498;2023-11-21T08:52:12;2.1;;;1.1;;
80868;SDS011;70295;40.182;44.498;2023-11-21T08:54:12;1.8;;;0.7;;
80868;SDS011;70295;40.182;44.498;2023-11-21T08:56:13;1.4;;;0.7;;
80868;SDS011;70295;40.182;44.498;2023-11-21T08:58:12;1.4;;;0.6;;
80868;SDS011;70295;40.182;44.498;2023-11-21T09:00:13;1.3;;;0.4;;
80868;SDS011;70295;40.182;44.498;2023-11-21T09:02:12;3.3;;;0.6;;
80868;SDS011;70295;40.182;44.498;2023-11-21T09:04:12;1.4;;;0.6;;
80868;SDS011;70295;40.182;44.498;2023-11-21T09:06:12;1.2;;;0.6;;
80868;SDS011;70295;40.182;44.498;2023-11-21T09:08:12;1.3;;;0.5;;
80868;SDS011;70295;40.182;44.498;2023-11-21T09:10:13;2;;;0.8;;
80868;SDS011;70295;40.182;44.498;2023-11-21T09:12:12;1;;;0.4;;
80868;SDS011;70295;40.182;44.498;2023-11-21T09:14:12;1;;;0.4;;
80868;SDS011;70295;40.182;44.498;2023-11-21T09:16:13;1.2;;;0.6;;
80868;SDS011;70295;40.182;44.498;2023-11-21T09:18:13;1;;;0.7;;
80868;SDS011;70295;40.182;44.498;2023-11-21T09:20:12;2.5;;;0.9;;
80868;SDS011;70295;40.182;44.498;2023-11-21T09:22:12;1.7;;;0.8;;
80868;SDS011;70295;40.182;44.498;2023-11-21T09:24:12;1.9;;;0.7;;
80868;SDS011;70295;40.182;44.498;2023-11-21T09:26:12;1.8;;;0.9;;
80868;SDS011;70295;40.182;44.498;2023-11-21T09:28:13;1.7;;;0.7;;
80868;SDS011;70295;40.182;44.498;2023-11-21T09:30:12;1.9;;;0.8;;
80868;SDS011;70295;40.182;44.498;2023-11-21T09:32:12;1.2;;;0.7;;
80868;SDS011;70295;40.182;44.498;2023-11-21T09:34:12;1.2;;;0.7;;
80868;SDS011;70295;40.182;44.498;2023-11-21T09:36:12;1.8;;;0.6;;
80868;SDS011;70295;40.182;44.498;2023-11-21T09:38:12;1.5;;;0.8;;
80868;SDS011;70295;40.182;44.498;2023-11-21T09:40:12;1.6;;;0.8;;
80868;SDS011;70295;40.182;44.498;2023-11-21T09:42:17;2;;;0.6;;
80868;SDS011;70295;40.182;44.498;2023-11-21T09:44:14;2.1;;;0.7;;
80868;SDS011;70295;40.182;44.498;2023-11-21T09:46:13;2.5;;;0.8;;
80868;SDS011;70295;40.182;44.498;2023-11-21T09:48:13;1.5;;;0.8;;
80868;SDS011;70295;40.182;44.498;2023-11-21T09:50:16;1.4;;;0.7;;
80868;SDS011;70295;40.182;44.498;2023-11-21T09:52:22;2.2;;;1;;
80868;SDS011;70295;40.182;44.498;2023-11-21T09:54:12;4.2;;;1.1;;
80868;SDS011;70295;40.182;44.498;2023-11-21T09:56:12;1.4;;;0.7;;
80868;SDS011;70295;40.182;44.498;2023-11-21T09:58:13;3;;;0.8;;
80868;SDS011;70295;40.182;44.498;2023-11-21T10:00:13;1.8;;;0.8;;
80868;SDS011;70295;40.182;44.498;2023-11-21T10:02:12;1.3;;;0.7;;
80868;SDS011;70295;40.182;44.498;2023-11-21T10:04:12;1.9;;;0.8;;
80868;SDS011;70295;40.182;44.498;2023-11-21T10:06:13;2;;;0.8;;
80868;SDS011;70295;40.182;44.498;2023-11-21T10:08:12;2.4;;;0.7;;
80868;SDS011;70295;40.182;44.498;2023-11-21T10:10:13;1.1;;;0.5;;
80868;SDS011;70295;40.182;44.498;2023-11-21T10:12:14;1.5;;;0.9;;
80868;SDS011;70295;40.182;44.498;2023-11-21T10:14:12;1.3;;;0.6;;
80868;SDS011;70295;40.182;44.498;2023-11-21T10:16:14;0.9;;;0.7;;
80868;SDS011;70295;40.182;44.498;2023-11-21T10:18:12;1.5;;;0.8;;
80868;SDS011;70295;40.182;44.498;2023-11-21T10:20:12;2.3;;;0.7;;
80868;SDS011;70295;40.182;44.498;2023-11-21T10:22:12;1.5;;;0.7;;
80868;SDS011;70295;40.182;44.498;2023-11-21T10:24:12;1.1;;;0.8;;
80868;SDS011;70295;40.182;44.498;2023-11-21T10:26:13;2.5;;;0.7;;
80868;SDS011;70295;40.182;44.498;2023-11-21T10:28:12;1.2;;;0.7;;
80868;SDS011;70295;40.182;44.498;2023-11-21T10:30:12;1.6;;;0.7;;
80868;SDS011;70295;40.182;44.498;2023-11-21T10:32:12;1.9;;;0.4;;
80868;SDS011;70295;40.182;44.498;2023-11-21T10:34:19;1.7;;;0.6;;
80868;SDS011;70295;40.182;44.498;2023-11-21T10:36:12;1.9;;;0.7;;
80868;SDS011;70295;40.182;44.498;2023-11-21T10:38:12;1.4;;;0.7;;
80868;SDS011;70295;40.182;44.498;2023-11-21T10:40:12;2.1;;;0.7;;
80868;SDS011;70295;40.182;44.498;2023-11-21T10:42:12;1.8;;;0.7;;
80868;SDS011;70295;40.182;44.498;2023-11-21T10:44:14;1.6;;;0.9;;
80868;SDS011;70295;40.182;44.498;2023-11-21T10:46:12;2.5;;;0.9;;
80868;SDS011;70295;40.182;44.498;2023-11-21T10:48:15;2.4;;;1;;
80868;SDS011;70295;40.182;44.498;2023-11-21T10:50:12;2.4;;;1.2;;
80868;SDS011;70295;40.182;44.498;2023-11-21T10:52:12;3.2;;;1.2;;
80868;SDS011;70295;40.182;44.498;2023-11-21T10:54:12;2.3;;;0.8;;
80868;SDS011;70295;40.182;44.498;2023-11-21T10:56:14;2.2;;;0.9;;
80868;SDS011;70295;40.182;44.498;2023-11-21T10:58:14;1.7;;;1;;
80868;SDS011;70295;40.182;44.498;2023-11-21T11:00:13;1.9;;;0.8;;
80868;SDS011;70295;40.182;44.498;2023-11-21T11:02:26;1.1;;;0.6;;
80868;SDS011;70295;40.182;44.498;2023-11-21T11:04:13;2.4;;;0.8;;
80868;SDS011;70295;40.182;44.498;2023-11-21T11:06:12;2.5;;;1;;
80868;SDS011;70295;40.182;44.498;2023-11-21T11:08:13;1.7;;;0.7;;
80868;SDS011;70295;40.182;44.498;2023-11-21T11:10:13;1.9;;;0.8;;
80868;SDS011;70295;40.182;44.498;2023-11-21T11:12:12;4;;;1;;
80868;SDS011;70295;40.182;44.498;2023-11-21T11:14:13;1.6;;;0.7;;
80868;SDS011;70295;40.182;44.498;2023-11-21T11:16:12;1.7;;;0.7;;
80868;SDS011;70295;40.182;44.498;2023-11-21T11:18:12;1.2;;;0.6;;
80868;SDS011;70295;40.182;44.498;2023-11-21T11:20:13;2.2;;;1.1;;
80868;SDS011;70295;40.182;44.498;2023-11-21T11:22:19;3;;;0.9;;
80868;SDS011;70295;40.182;44.498;2023-11-21T11:26:20;2.2;;;1.1;;
80868;SDS011;70295;40.182;44.498;2023-11-21T11:28:27;3.2;;;1.1;;
80868;SDS011;70295;40.182;44.498;2023-11-21T11:32:21;2.8;;;0.9;;
80868;SDS011;70295;40.182;44.498;2023-11-21T11:36:25;2.1;;;0.9;;
80868;SDS011;70295;40.182;44.498;2023-11-21T11:38:12;2.5;;;0.9;;
80868;SDS011;70295;40.182;44.498;2023-11-21T11:40:12;2.6;;;0.8;;
80868;SDS011;70295;40.182;44.498;2023-11-21T11:42:17;1.9;;;1.1;;
80868;SDS011;70295;40.182;44.498;2023-11-21T11:46:12;1.8;;;0.8;;
80868;SDS011;70295;40.182;44.498;2023-11-21T11:48:12;3.9;;;0.9;;
80868;SDS011;70295;40.182;44.498;2023-11-21T11:50:12;2.5;;;0.9;;
80868;SDS011;70295;40.182;44.498;2023-11-21T11:54:12;1.4;;;0.8;;
80868;SDS011;70295;40.182;44.498;2023-11-21T11:58:12;2.3;;;0.9;;
80868;SDS011;70295;40.182;44.498;2023-11-21T12:00:19;2.7;;;1.2;;
80868;SDS011;70295;40.182;44.498;2023-11-21T12:02:12;2.5;;;1;;
80868;SDS011;70295;40.182;44.498;2023-11-21T12:06:12;5.1;;;1.3;;
80868;SDS011;70295;40.182;44.498;2023-11-21T12:08:12;3.1;;;1.4;;
80868;SDS011;70295;40.182;44.498;2023-11-21T12:10:16;3.4;;;1.2;;
80868;SDS011;70295;40.182;44.498;2023-11-21T12:12:13;2.2;;;0.8;;
80868;SDS011;70295;40.182;44.498;2023-11-21T12:14:13;2.1;;;1;;
80868;SDS011;70295;40.182;44.498;2023-11-21T12:16:12;2.7;;;1.3;;
80868;SDS011;70295;40.182;44.498;2023-11-21T12:18:12;2.7;;;1.2;;
80868;SDS011;70295;40.182;44.498;2023-11-21T12:20:13;3.3;;;1;;
80868;SDS011;70295;40.182;44.498;2023-11-21T12:22:12;2.2;;;1.1;;
80868;SDS011;70295;40.182;44.498;2023-11-21T12:24:12;2.9;;;1.3;;
80868;SDS011;70295;40.182;44.498;2023-11-21T12:26:12;3.9;;;1.3;;
80868;SDS011;70295;40.182;44.498;2023-11-21T12:28:12;3.4;;;1;;
80868;SDS011;70295;40.182;44.498;2023-11-21T12:30:13;2.5;;;1.1;;
80868;SDS011;70295;40.182;44.498;2023-11-21T12:32:12;3.1;;;1.1;;
80868;SDS011;70295;40.182;44.498;2023-11-21T12:34:12;2.2;;;1.3;;
80868;SDS011;70295;40.182;44.498;2023-11-21T12:36:12;6.4;;;1.9;;
80868;SDS011;70295;40.182;44.498;2023-11-21T12:38:12;2.2;;;1.2;;
80868;SDS011;70295;40.182;44.498;2023-11-21T12:40:12;2.3;;;1.2;;
80868;SDS011;70295;40.182;44.498;2023-11-21T12:42:12;6.1;;;1.3;;
80868;SDS011;70295;40.182;44.498;2023-11-21T12:44:12;2.6;;;1.1;;
80868;SDS011;70295;40.182;44.498;2023-11-21T12:46:12;2.8;;;1.3;;
80868;SDS011;70295;40.182;44.498;2023-11-21T12:48:12;2.7;;;1.2;;
80868;SDS011;70295;40.182;44.498;2023-11-21T12:50:12;5.2;;;1.5;;
80868;SDS011;70295;40.182;44.498;2023-11-21T12:52:12;2.8;;;1.6;;
80868;SDS011;70295;40.182;44.498;2023-11-21T12:54:12;3.4;;;1.7;;
80868;SDS011;70295;40.182;44.498;2023-11-21T12:56:12;4.1;;;1.9;;
80868;SDS011;70295;40.182;44.498;2023-11-21T12:58:12;3.9;;;1.7;;
80868;SDS011;70295;40.182;44.498;2023-11-21T13:00:13;5.3;;;1.9;;
80868;SDS011;70295;40.182;44.498;2023-11-21T13:02:13;5.6;;;1.9;;
80868;SDS011;70295;40.182;44.498;2023-11-21T13:04:12;4.6;;;2.4;;
80868;SDS011;70295;40.182;44.498;2023-11-21T13:06:12;3.9;;;1.9;;
80868;SDS011;70295;40.182;44.498;2023-11-21T13:08:13;4.8;;;2;;
80868;SDS011;70295;40.182;44.498;2023-11-21T13:10:14;3.4;;;1.9;;
80868;SDS011;70295;40.182;44.498;2023-11-21T13:12:12;5.8;;;1.9;;
80868;SDS011;70295;40.182;44.498;2023-11-21T13:14:12;4.6;;;1.7;;